createdAt,value
2022-09-24T00:01:31.330Z,51.96
2022-09-24T00:04:00.549Z,51.40
2022-09-24T00:06:29.028Z,51.51
2022-09-24T00:08:56.919Z,51.97
2022-09-24T00:11:25.358Z,51.11
2022-09-24T00:13:53.197Z,51.31
2022-09-24T00:16:21.417Z,51.56
2022-09-24T00:18:48.727Z,52.16
2022-09-24T00:21:20.326Z,52.24
2022-09-24T00:23:54.757Z,52.14
2022-09-24T00:26:41.021Z,52.17
2022-09-24T00:29:09.068Z,52.07
2022-09-24T00:31:36.829Z,51.86
2022-09-24T00:34:04.526Z,52.15
2022-09-24T00:36:31.854Z,51.77
2022-09-24T00:38:59.719Z,51.72
2022-09-24T00:41:28.753Z,52.03
2022-09-24T00:43:56.138Z,52.05
2022-09-24T00:46:23.402Z,52.79
2022-09-24T00:48:52.404Z,52.53
2022-09-24T00:51:21.821Z,52.67
2022-09-24T00:53:50.965Z,53.39
2022-09-24T00:56:19.654Z,53.11
2022-09-24T00:58:48.305Z,53.48
2022-09-24T01:01:16.088Z,53.83
2022-09-24T01:03:43.817Z,54.17
2022-09-24T01:06:11.635Z,54.35
2022-09-24T01:08:40.047Z,54.88
2022-09-24T01:11:18.490Z,55.00
2022-09-24T01:14:04.866Z,55.15
2022-09-24T01:16:41.158Z,54.91
2022-09-24T01:19:09.315Z,55.23
2022-09-24T01:21:40.381Z,55.31
2022-09-24T01:24:37.207Z,54.86
2022-09-24T01:27:14.096Z,56.29
2022-09-24T01:29:43.474Z,56.34
2022-09-24T01:32:25.155Z,56.11
2022-09-24T01:34:57.310Z,55.83
2022-09-24T01:37:26.431Z,55.97
2022-09-24T01:39:55.605Z,55.67
2022-09-24T01:42:24.991Z,55.97
2022-09-24T01:44:52.474Z,56.60
2022-09-24T01:47:34.138Z,56.39
2022-09-24T01:50:03.089Z,56.61
2022-09-24T01:52:34.261Z,56.30
2022-09-24T01:55:03.057Z,55.77
2022-09-24T01:57:34.009Z,56.34
2022-09-24T02:00:09.813Z,56.51
2022-09-24T02:03:00.353Z,56.87
2022-09-24T02:05:33.657Z,56.32
2022-09-24T02:08:09.584Z,56.83
2022-09-24T02:10:42.384Z,56.54
2022-09-24T02:13:12.782Z,56.40
2022-09-24T02:15:42.081Z,56.21
2022-09-24T02:18:11.757Z,56.19
2022-09-24T02:20:39.947Z,56.14
2022-09-24T02:23:11.076Z,56.29
2022-09-24T02:25:42.830Z,56.43
2022-09-24T02:28:10.189Z,56.72
2022-09-24T02:30:45.685Z,56.77
2022-09-24T02:33:32.778Z,56.90
2022-09-24T02:36:00.280Z,57.26
2022-09-24T02:38:27.442Z,57.19
2022-09-24T02:40:55.350Z,57.66
2022-09-24T02:43:22.609Z,57.43
2022-09-24T02:45:49.857Z,57.72
2022-09-24T02:48:17.036Z,58.47
2022-09-24T02:50:44.624Z,58.54
2022-09-24T02:53:11.823Z,58.80
2022-09-24T02:55:38.995Z,59.30
2022-09-24T02:58:06.200Z,59.55
2022-09-24T03:00:35.376Z,59.56
2022-09-24T03:03:02.720Z,59.59
2022-09-24T03:05:29.989Z,59.05
2022-09-24T03:07:58.769Z,59.73
2022-09-24T03:10:26.241Z,59.83
2022-09-24T03:12:53.482Z,59.74
2022-09-24T03:15:20.632Z,59.67
2022-09-24T03:17:47.787Z,60.16
2022-09-24T03:20:14.972Z,58.58
2022-09-24T03:22:42.917Z,58.90
2022-09-24T03:25:11.124Z,58.80
2022-09-24T03:27:38.302Z,58.81
2022-09-24T03:30:24.545Z,58.68
2022-09-24T03:32:51.859Z,58.83
2022-09-24T03:35:19.737Z,59.04
2022-09-24T03:37:49.150Z,59.09
2022-09-24T03:40:16.781Z,59.25
2022-09-24T03:42:44.077Z,59.15
2022-09-24T03:45:11.530Z,59.40
2022-09-24T03:47:39.015Z,59.50
2022-09-24T03:50:06.438Z,59.65
2022-09-24T03:52:34.069Z,59.63
2022-09-24T03:55:01.292Z,59.81
2022-09-24T03:57:28.573Z,60.32
2022-09-24T03:59:55.751Z,60.37
2022-09-24T04:02:22.941Z,60.27
2022-09-24T04:04:50.561Z,60.35
2022-09-24T04:07:17.892Z,60.36
2022-09-24T04:09:45.077Z,60.48
2022-09-24T04:12:13.175Z,60.13
2022-09-24T04:14:40.357Z,60.26
2022-09-24T04:17:07.476Z,60.31
2022-09-24T04:19:34.688Z,59.96
2022-09-24T04:22:01.880Z,59.86
2022-09-24T04:24:29.022Z,59.88
2022-09-24T04:26:56.168Z,60.56
2022-09-24T04:29:23.291Z,60.44
2022-09-24T04:31:50.585Z,60.19
2022-09-24T04:34:18.125Z,59.99
2022-09-24T04:36:45.270Z,59.85
2022-09-24T04:39:12.769Z,59.75
2022-09-24T04:41:40.297Z,59.34
2022-09-24T04:44:07.759Z,59.71
2022-09-24T04:46:35.217Z,60.04
2022-09-24T04:49:02.491Z,60.33
2022-09-24T04:51:29.730Z,59.78
2022-09-24T04:53:56.993Z,60.14
2022-09-24T04:56:24.136Z,60.17
2022-09-24T04:58:51.814Z,60.03
2022-09-24T05:01:19.822Z,60.00
2022-09-24T05:03:47.062Z,60.08
2022-09-24T05:06:14.384Z,60.80
2022-09-24T05:08:42.097Z,61.31
2022-09-24T05:11:09.408Z,61.30
2022-09-24T05:13:36.596Z,60.99
2022-09-24T05:16:03.841Z,60.78
2022-09-24T05:18:31.084Z,60.90
2022-09-24T05:20:58.355Z,61.08
2022-09-24T05:23:25.555Z,60.46
2022-09-24T05:26:11.411Z,60.71
2022-09-24T05:28:39.626Z,60.60
2022-09-24T05:31:07.028Z,60.68
2022-09-24T05:33:38.949Z,60.51
2022-09-24T05:36:06.460Z,60.29
2022-09-24T05:38:33.687Z,60.04
2022-09-24T05:41:01.390Z,60.34
2022-09-24T05:43:28.772Z,60.89
2022-09-24T05:45:58.846Z,60.90
2022-09-24T05:48:26.295Z,60.26
2022-09-24T05:50:55.542Z,59.52
2022-09-24T05:53:25.763Z,59.95
2022-09-24T05:55:53.419Z,59.80
2022-09-24T05:58:20.730Z,60.44
2022-09-24T06:00:47.900Z,60.62
2022-09-24T06:03:16.803Z,60.08
2022-09-24T06:05:46.153Z,60.10
2022-09-24T06:08:15.318Z,60.13
2022-09-24T06:10:43.031Z,60.92
2022-09-24T06:13:11.608Z,60.94
2022-09-24T06:15:38.983Z,60.45
2022-09-24T06:18:06.166Z,60.29
2022-09-24T06:20:33.686Z,59.44
2022-09-24T06:23:00.906Z,59.35
2022-09-24T06:25:28.775Z,58.83
2022-09-24T06:28:00.307Z,58.33
2022-09-24T06:30:28.316Z,58.47
2022-09-24T06:32:55.587Z,59.04
2022-09-24T06:35:22.997Z,59.39
2022-09-24T06:37:52.824Z,59.03
2022-09-24T06:40:20.092Z,59.09
2022-09-24T06:42:50.940Z,59.00
2022-09-24T06:45:18.268Z,58.71
2022-09-24T06:47:51.496Z,59.18
2022-09-24T06:50:18.647Z,59.74
2022-09-24T06:52:45.772Z,58.73
2022-09-24T06:55:13.002Z,58.24
2022-09-24T06:57:40.279Z,58.93
2022-09-24T07:00:08.545Z,59.15
2022-09-24T07:02:36.539Z,57.81
2022-09-24T07:05:04.014Z,57.31
2022-09-24T07:07:33.274Z,57.12
2022-09-24T07:10:02.026Z,56.20
2022-09-24T07:12:30.029Z,56.56
2022-09-24T07:14:57.354Z,56.85
2022-09-24T07:17:26.185Z,56.25
2022-09-24T07:19:56.134Z,56.63
2022-09-24T07:22:23.337Z,56.60
2022-09-24T07:24:50.858Z,56.80
2022-09-24T07:27:19.482Z,56.30
2022-09-24T07:29:49.828Z,56.48
2022-09-24T07:32:19.882Z,56.57
2022-09-24T07:34:47.185Z,56.67
2022-09-24T07:37:14.680Z,56.51
2022-09-24T07:39:41.910Z,56.66
2022-09-24T07:42:09.117Z,56.91
2022-09-24T07:44:36.628Z,57.12
2022-09-24T07:47:04.191Z,57.04
2022-09-24T07:49:32.735Z,57.01
2022-09-24T07:52:00.264Z,57.26
2022-09-24T07:54:27.497Z,57.35
2022-09-24T07:56:54.682Z,57.20
2022-09-24T07:59:21.998Z,57.53
2022-09-24T08:01:49.302Z,56.46
2022-09-24T08:04:18.329Z,56.41
2022-09-24T08:06:48.539Z,56.99
2022-09-24T08:09:16.966Z,56.98
2022-09-24T08:11:44.813Z,56.88
2022-09-24T08:14:12.188Z,57.19
2022-09-24T08:16:43.408Z,57.72
2022-09-24T08:19:14.124Z,57.68
2022-09-24T08:21:41.454Z,57.60
2022-09-24T08:24:08.785Z,57.66
2022-09-24T08:26:36.083Z,57.52
2022-09-24T08:29:03.389Z,58.11
2022-09-24T08:31:31.445Z,58.62
2022-09-24T08:33:59.026Z,58.61
2022-09-24T08:36:28.031Z,58.96
2022-09-24T08:38:55.503Z,58.33
2022-09-24T08:41:38.366Z,58.03
2022-09-24T08:44:10.210Z,57.62
2022-09-24T08:47:02.459Z,57.74
2022-09-24T08:49:35.344Z,57.65
2022-09-24T08:52:02.591Z,57.68
2022-09-24T08:54:31.696Z,57.66
2022-09-24T08:57:01.295Z,57.64
2022-09-24T08:59:37.727Z,57.79
2022-09-24T09:02:19.532Z,57.83
2022-09-24T09:04:49.822Z,57.94
2022-09-24T09:07:31.217Z,58.36
2022-09-24T09:09:58.376Z,58.50
2022-09-24T09:12:27.921Z,58.05
2022-09-24T09:14:57.869Z,58.29
2022-09-24T09:17:29.812Z,58.62
2022-09-24T09:19:58.130Z,58.43
2022-09-24T09:22:28.135Z,58.47
2022-09-24T09:25:03.660Z,58.60
2022-09-24T09:27:31.501Z,58.38
2022-09-24T09:30:03.132Z,58.28
2022-09-24T09:32:36.993Z,59.00
2022-09-24T09:35:22.949Z,58.17
2022-09-24T09:38:10.340Z,58.81
2022-09-24T09:40:49.752Z,58.73
2022-09-24T09:43:17.881Z,59.00
2022-09-24T09:45:52.122Z,58.90
2022-09-24T09:48:21.430Z,59.12
2022-09-24T09:50:50.594Z,58.85
2022-09-24T09:53:19.348Z,58.46
2022-09-24T09:55:51.967Z,58.46
2022-09-24T09:58:22.428Z,58.86
2022-09-24T10:00:50.373Z,58.84
2022-09-24T10:03:26.185Z,58.68
2022-09-24T10:05:57.453Z,58.67
2022-09-24T10:08:25.288Z,58.91
2022-09-24T10:10:55.401Z,58.45
2022-09-24T10:13:22.892Z,58.38
2022-09-24T10:16:04.473Z,58.14
2022-09-24T10:18:34.051Z,57.78
2022-09-24T10:21:05.171Z,57.08
2022-09-24T10:23:52.624Z,57.53
2022-09-24T10:26:19.877Z,57.24
2022-09-24T10:29:07.540Z,57.00
2022-09-24T10:31:35.940Z,56.87
2022-09-24T10:34:05.749Z,57.42
2022-09-24T10:36:33.105Z,56.92
2022-09-24T10:39:04.767Z,56.89
2022-09-24T10:41:32.032Z,56.67
2022-09-24T10:44:02.834Z,56.07
2022-09-24T10:46:36.284Z,56.25
2022-09-24T10:49:06.566Z,56.19
2022-09-24T10:51:44.485Z,56.19
2022-09-24T10:54:20.947Z,56.01
2022-09-24T10:56:51.711Z,55.37
2022-09-24T10:59:18.910Z,55.30
2022-09-24T11:01:59.349Z,55.40
2022-09-24T11:04:30.526Z,55.29
2022-09-24T11:07:17.990Z,55.34
2022-09-24T11:09:45.233Z,56.08
2022-09-24T11:12:14.234Z,56.18
2022-09-24T11:14:47.166Z,56.28
2022-09-24T11:17:20.556Z,55.84
2022-09-24T11:19:58.661Z,55.81
2022-09-24T11:22:25.864Z,55.88
2022-09-24T11:25:11.624Z,56.00
2022-09-24T11:27:41.587Z,55.12
2022-09-24T11:30:17.915Z,55.19
2022-09-24T11:33:03.876Z,55.79
2022-09-24T11:35:31.110Z,55.87
2022-09-24T11:37:58.294Z,55.60
2022-09-24T11:40:30.564Z,54.86
2022-09-24T11:42:57.952Z,54.80
2022-09-24T11:45:31.253Z,55.38
2022-09-24T11:48:16.958Z,55.81
2022-09-24T11:50:47.733Z,55.51
2022-09-24T11:53:34.059Z,54.81
2022-09-24T11:56:12.319Z,55.69
2022-09-24T11:58:43.972Z,56.23
2022-09-24T12:01:15.549Z,60.10
2022-09-24T12:03:46.466Z,59.81
2022-09-24T12:06:18.298Z,61.08
2022-09-24T12:08:52.384Z,59.02
2022-09-24T12:11:24.740Z,59.13
2022-09-24T12:14:18.344Z,58.29
2022-09-24T12:16:47.727Z,58.33
2022-09-24T12:19:21.300Z,59.63
2022-09-24T12:21:50.489Z,61.13
2022-09-24T12:24:23.903Z,62.62
2022-09-24T12:26:51.731Z,61.88
2022-09-24T12:29:56.571Z,61.68
2022-09-24T12:32:56.680Z,61.15
2022-09-24T12:35:29.833Z,60.54
2022-09-24T12:38:04.324Z,60.77
2022-09-24T12:40:43.794Z,61.05
2022-09-24T12:43:18.344Z,61.87
2022-09-24T12:45:46.108Z,62.87
2022-09-24T12:48:15.427Z,62.30
2022-09-24T12:50:45.996Z,63.09
2022-09-24T12:53:24.970Z,61.38
2022-09-24T12:55:52.709Z,61.73
2022-09-24T12:58:28.634Z,62.15
2022-09-24T13:01:06.637Z,61.63
2022-09-24T13:03:35.897Z,62.11
2022-09-24T13:06:04.838Z,63.68
2022-09-24T13:08:41.251Z,63.37
2022-09-24T13:11:29.825Z,62.99
2022-09-24T13:14:02.497Z,62.88
2022-09-24T13:16:29.837Z,62.97
2022-09-24T13:18:59.139Z,62.85
2022-09-24T13:21:27.378Z,63.00
2022-09-24T13:23:55.386Z,63.44
2022-09-24T13:26:25.369Z,64.34
2022-09-24T13:28:55.402Z,63.49
2022-09-24T13:31:22.725Z,63.86
2022-09-24T13:33:52.832Z,63.66
2022-09-24T13:36:26.754Z,62.69
2022-09-24T13:38:57.405Z,60.06
2022-09-24T13:41:29.179Z,59.91
2022-09-24T13:44:00.337Z,59.89
2022-09-24T13:46:28.287Z,59.67
2022-09-24T13:48:58.864Z,61.37
2022-09-24T13:51:28.640Z,61.27
2022-09-24T13:53:58.699Z,59.92
2022-09-24T13:56:26.295Z,60.39
2022-09-24T13:59:03.114Z,61.03
2022-09-24T14:01:35.144Z,61.29
2022-09-24T14:04:20.739Z,61.41
2022-09-24T14:06:52.819Z,61.22
2022-09-24T14:09:23.027Z,61.21
2022-09-24T14:11:52.022Z,61.65
2022-09-24T14:14:21.110Z,61.57
2022-09-24T14:16:48.578Z,61.82
2022-09-24T14:19:16.216Z,62.11
2022-09-24T14:21:52.222Z,61.09
2022-09-24T14:24:23.040Z,61.08
2022-09-24T14:27:01.785Z,61.12
2022-09-24T14:29:33.175Z,60.81
2022-09-24T14:32:02.710Z,60.62
2022-09-24T14:34:35.014Z,61.03
2022-09-24T14:37:10.791Z,61.15
2022-09-24T14:39:42.803Z,61.27
2022-09-24T14:42:12.861Z,61.91
2022-09-24T14:44:44.490Z,61.88
2022-09-24T14:47:25.438Z,62.30
2022-09-24T14:49:52.637Z,61.96
2022-09-24T14:52:28.113Z,61.44
2022-09-24T14:55:14.308Z,60.13
2022-09-24T14:57:46.082Z,59.53
2022-09-24T15:00:19.750Z,59.97
2022-09-24T15:03:12.938Z,59.86
2022-09-24T15:05:40.455Z,59.79
2022-09-24T15:08:39.981Z,60.86
2022-09-24T15:11:07.245Z,60.32
2022-09-24T15:13:35.739Z,60.45
2022-09-24T15:16:06.173Z,60.40
2022-09-24T15:18:35.470Z,60.19
2022-09-24T15:21:06.281Z,60.53
2022-09-24T15:23:33.626Z,60.51
2022-09-24T15:26:00.844Z,60.35
2022-09-24T15:28:29.558Z,60.76
2022-09-24T15:30:57.303Z,60.62
2022-09-24T15:33:24.565Z,60.48
2022-09-24T15:35:52.454Z,60.15
2022-09-24T15:38:20.059Z,59.30
2022-09-24T15:40:51.370Z,59.11
2022-09-24T15:43:23.225Z,60.08
2022-09-24T15:45:51.043Z,60.13
2022-09-24T15:48:18.591Z,59.76
2022-09-24T15:50:46.768Z,59.90
2022-09-24T15:53:24.802Z,59.92
2022-09-24T15:55:56.521Z,59.87
2022-09-24T15:58:24.101Z,60.15
2022-09-24T16:00:52.342Z,59.90
2022-09-24T16:03:27.864Z,59.85
2022-09-24T16:05:56.339Z,59.92
2022-09-24T16:08:23.597Z,60.02
2022-09-24T16:10:51.033Z,60.30
2022-09-24T16:13:19.113Z,59.78
2022-09-24T16:15:46.440Z,59.76
2022-09-24T16:18:15.085Z,60.45
2022-09-24T16:20:43.124Z,60.71
2022-09-24T16:23:17.415Z,60.15
2022-09-24T16:25:57.044Z,60.78
2022-09-24T16:28:24.808Z,61.30
2022-09-24T16:30:52.083Z,62.51
2022-09-24T16:33:19.424Z,62.14
2022-09-24T16:35:46.646Z,63.17
2022-09-24T16:38:15.619Z,63.10
2022-09-24T16:40:46.416Z,64.08
2022-09-24T16:43:13.687Z,65.17
2022-09-24T16:45:40.898Z,65.25
2022-09-24T16:48:08.048Z,65.34
2022-09-24T16:50:35.352Z,65.16
2022-09-24T16:53:02.621Z,65.30
2022-09-24T16:55:29.817Z,65.41
2022-09-24T16:57:57.059Z,65.90
2022-09-24T17:00:24.208Z,65.94
2022-09-24T17:02:51.508Z,65.88
2022-09-24T17:05:18.824Z,66.02
2022-09-24T17:07:46.061Z,67.91
2022-09-24T17:10:13.494Z,67.90
2022-09-24T17:12:44.819Z,68.26
2022-09-24T17:15:14.086Z,68.77
2022-09-24T17:17:49.195Z,69.50
2022-09-24T17:20:18.022Z,70.72
2022-09-24T17:22:48.157Z,69.92
2022-09-24T17:25:15.519Z,69.58
2022-09-24T17:27:42.710Z,67.76
2022-09-24T17:30:10.960Z,67.15
2022-09-24T17:32:38.214Z,67.08
2022-09-24T17:35:06.090Z,66.77
2022-09-24T17:37:33.800Z,66.10
2022-09-24T17:40:01.076Z,63.76
2022-09-24T17:42:28.311Z,63.29
2022-09-24T17:44:55.534Z,63.93
2022-09-24T17:47:22.727Z,64.72
2022-09-24T17:49:49.939Z,64.02
2022-09-24T17:52:17.147Z,64.79
2022-09-24T17:54:44.811Z,65.43
2022-09-24T17:57:12.014Z,65.08
2022-09-24T17:59:39.954Z,64.79
2022-09-24T18:02:07.381Z,65.67
2022-09-24T18:04:38.355Z,65.64
2022-09-24T18:07:05.692Z,65.49
2022-09-24T18:09:33.006Z,65.59
2022-09-24T18:12:00.349Z,65.99
2022-09-24T18:14:27.642Z,66.30
2022-09-24T18:16:54.866Z,66.35
2022-09-24T18:19:22.171Z,68.99
2022-09-24T18:21:49.776Z,69.29
2022-09-24T18:24:17.497Z,67.35
2022-09-24T18:26:46.551Z,68.28
2022-09-24T18:29:16.476Z,71.89
2022-09-24T18:31:43.885Z,69.48
2022-09-24T18:34:13.184Z,71.29
2022-09-24T18:36:41.461Z,72.67
2022-09-24T18:39:12.124Z,76.23
2022-09-24T18:41:39.859Z,76.55
2022-09-24T18:44:07.213Z,76.51
2022-09-24T18:46:35.125Z,77.97
2022-09-24T18:49:02.751Z,76.99
2022-09-24T18:51:31.275Z,78.38
2022-09-24T18:54:00.181Z,80.07
2022-09-24T18:56:27.843Z,81.67
2022-09-24T18:58:59.056Z,81.42
2022-09-24T19:01:27.149Z,82.05
2022-09-24T19:03:55.406Z,81.16
2022-09-24T19:06:22.843Z,79.87
2022-09-24T19:08:50.101Z,80.31
2022-09-24T19:11:17.520Z,80.74
2022-09-24T19:13:49.286Z,82.84
2022-09-24T19:16:17.263Z,83.64
2022-09-24T19:18:44.663Z,83.04
2022-09-24T19:21:14.080Z,85.06
2022-09-24T19:23:46.055Z,85.85
2022-09-24T19:26:14.842Z,85.51
2022-09-24T19:28:42.625Z,85.07
2022-09-24T19:31:14.678Z,84.48
2022-09-24T19:33:42.105Z,86.15
2022-09-24T19:36:09.463Z,86.18
2022-09-24T19:38:37.294Z,86.70
2022-09-24T19:41:06.221Z,87.46
2022-09-24T19:43:34.336Z,86.23
2022-09-24T19:46:03.075Z,86.54
2022-09-24T19:48:31.144Z,85.68
2022-09-24T19:51:03.518Z,86.06
2022-09-24T19:53:33.487Z,87.36
2022-09-24T19:56:00.886Z,88.39
2022-09-24T19:58:28.181Z,88.71
2022-09-24T20:00:59.975Z,90.19
2022-09-24T20:03:27.249Z,89.89
2022-09-24T20:05:54.498Z,89.27
2022-09-24T20:08:23.468Z,88.39
2022-09-24T20:10:50.746Z,88.65
2022-09-24T20:13:18.600Z,89.74
2022-09-24T20:15:45.931Z,88.27
2022-09-24T20:18:13.177Z,89.67
2022-09-24T20:20:40.421Z,90.81
2022-09-24T20:23:08.801Z,89.72
2022-09-24T20:25:54.690Z,89.77
2022-09-24T20:28:21.865Z,90.14
2022-09-24T20:30:49.137Z,90.15
2022-09-24T20:33:20.240Z,90.27
2022-09-24T20:35:47.778Z,91.39
2022-09-24T20:38:14.958Z,91.34
2022-09-24T20:40:43.243Z,91.49
2022-09-24T20:43:10.630Z,92.43
2022-09-24T20:45:40.084Z,94.27
2022-09-24T20:48:07.398Z,94.52
2022-09-24T20:50:34.882Z,92.55
2022-09-24T20:53:02.050Z,91.71
2022-09-24T20:55:30.011Z,92.23
2022-09-24T20:57:57.263Z,92.16
2022-09-24T21:00:25.330Z,92.66
2022-09-24T21:02:52.777Z,92.45
2022-09-24T21:05:20.049Z,93.90
2022-09-24T21:07:47.225Z,94.42
2022-09-24T21:10:14.436Z,95.89
2022-09-24T21:12:41.712Z,96.80
2022-09-24T21:26:45.149Z,94.39
2022-09-24T21:29:12.975Z,95.43
2022-09-24T21:31:40.143Z,95.35
2022-09-24T21:34:07.654Z,94.36
2022-09-24T21:36:44.078Z,97.08
2022-09-24T21:39:26.515Z,96.71
2022-09-24T21:41:57.223Z,97.37
2022-09-24T21:44:24.270Z,96.26
2022-09-24T21:46:52.402Z,98.48
2022-09-24T21:49:20.280Z,98.01
2022-09-24T21:51:47.462Z,97.05
2022-09-24T21:54:17.099Z,97.33
2022-09-24T21:56:45.240Z,99.23
2022-09-24T21:59:31.436Z,98.40
2022-09-24T22:01:58.940Z,95.70
2022-09-24T22:04:27.632Z,95.30
2022-09-24T22:06:55.064Z,93.84
2022-09-24T22:09:22.360Z,93.45
2022-09-24T22:11:51.553Z,94.72
2022-09-24T22:14:18.648Z,95.95
2022-09-24T22:16:45.820Z,95.81
2022-09-24T22:19:12.951Z,95.21
2022-09-24T22:21:40.578Z,93.76
2022-09-24T22:24:07.786Z,95.24
2022-09-24T22:26:34.937Z,96.79
2022-09-24T22:29:03.875Z,97.58
2022-09-24T22:31:31.065Z,97.34
2022-09-24T22:34:17.013Z,97.90
2022-09-24T22:36:44.260Z,98.08
2022-09-24T22:39:11.334Z,97.85
2022-09-24T22:41:40.006Z,99.76
2022-09-24T22:44:07.372Z,99.22
2022-09-24T22:46:36.210Z,99.29
2022-09-24T22:49:04.556Z,99.88
2022-09-24T22:51:32.001Z,99.95
2022-09-24T22:54:00.205Z,100.00
2022-09-24T22:56:27.942Z,100.00
2022-09-24T22:58:56.446Z,100.00
2022-09-24T23:01:25.015Z,100.00
2022-09-24T23:03:52.927Z,99.63
2022-09-24T23:06:20.968Z,99.83
2022-09-24T23:08:48.753Z,99.63
2022-09-24T23:11:17.333Z,99.93
2022-09-24T23:13:45.909Z,100.00
2022-09-24T23:16:17.570Z,100.00
2022-09-24T23:18:46.017Z,100.00
2022-09-24T23:21:14.505Z,100.00
2022-09-24T23:23:42.306Z,100.00
2022-09-24T23:26:16.412Z,100.00
2022-09-24T23:28:44.988Z,100.00
2022-09-24T23:31:13.269Z,100.00
2022-09-24T23:33:42.418Z,100.00
2022-09-24T23:36:10.731Z,100.00
2022-09-24T23:38:38.361Z,100.00
2022-09-24T23:41:05.978Z,100.00
2022-09-24T23:43:33.344Z,100.00
2022-09-24T23:46:01.220Z,100.00
2022-09-24T23:48:29.026Z,100.00
2022-09-24T23:50:57.154Z,100.00
2022-09-24T23:53:24.999Z,100.00
2022-09-24T23:55:53.173Z,100.00
2022-09-24T23:58:20.939Z,100.00
